sensor_id;sensor_type;location;lat;lon;timestamp;temperature;humidity
55004;DHT22;40900;52.710;6.438;2022-12-18T00:02:16;-3.10;99.90
55004;DHT22;40900;52.710;6.438;2022-12-18T00:04:42;-3.10;99.90
55004;DHT22;40900;52.710;6.438;2022-12-18T00:07:08;-3.10;99.90
55004;DHT22;40900;52.710;6.438;2022-12-18T00:09:33;-3.10;99.90
55004;DHT22;40900;52.710;6.438;2022-12-18T00:11:59;-3.10;99.90
55004;DHT22;40900;52.710;6.438;2022-12-18T00:14:25;-3.10;99.90
55004;DHT22;40900;52.710;6.438;2022-12-18T00:16:51;-3.20;99.90
55004;DHT22;40900;52.710;6.438;2022-12-18T00:19:16;-3.20;99.90
55004;DHT22;40900;52.710;6.438;2022-12-18T00:21:43;-3.20;99.90
55004;DHT22;40900;52.710;6.438;2022-12-18T00:24:10;-3.10;99.90
55004;DHT22;40900;52.710;6.438;2022-12-18T00:26:37;-3.10;99.90
55004;DHT22;40900;52.710;6.438;2022-12-18T00:29:08;-3.20;99.90
55004;DHT22;40900;52.710;6.438;2022-12-18T00:31:36;-3.20;99.90
55004;DHT22;40900;52.710;6.438;2022-12-18T00:34:03;-3.10;99.90
55004;DHT22;40900;52.710;6.438;2022-12-18T00:36:31;-2.90;99.90
55004;DHT22;40900;52.710;6.438;2022-12-18T00:38:59;-3.30;99.90
55004;DHT22;40900;52.710;6.438;2022-12-18T00:41:25;-3.30;99.90
55004;DHT22;40900;52.710;6.438;2022-12-18T00:44:12;-3.30;99.90
55004;DHT22;40900;52.710;6.438;2022-12-18T00:46:38;-3.30;99.90
55004;DHT22;40900;52.710;6.438;2022-12-18T00:49:04;-3.30;99.90
55004;DHT22;40900;52.710;6.438;2022-12-18T00:51:29;-3.40;99.90
55004;DHT22;40900;52.710;6.438;2022-12-18T00:53:55;-3.40;99.90
55004;DHT22;40900;52.710;6.438;2022-12-18T00:56:21;-3.40;99.90
55004;DHT22;40900;52.710;6.438;2022-12-18T00:58:47;-3.40;99.90
55004;DHT22;40900;52.710;6.438;2022-12-18T01:01:13;-3.40;99.90
55004;DHT22;40900;52.710;6.438;2022-12-18T01:03:39;-3.40;99.90
55004;DHT22;40900;52.710;6.438;2022-12-18T01:06:09;-3.50;99.90
55004;DHT22;40900;52.710;6.438;2022-12-18T01:08:37;-3.50;99.90
55004;DHT22;40900;52.710;6.438;2022-12-18T01:11:11;-3.60;99.90
55004;DHT22;40900;52.710;6.438;2022-12-18T01:13:38;-3.60;99.90
55004;DHT22;40900;52.710;6.438;2022-12-18T01:16:04;-3.60;99.90
55004;DHT22;40900;52.710;6.438;2022-12-18T01:18:30;-3.50;99.90
55004;DHT22;40900;52.710;6.438;2022-12-18T01:20:56;-3.60;99.90
55004;DHT22;40900;52.710;6.438;2022-12-18T01:23:21;-3.50;99.90
55004;DHT22;40900;52.710;6.438;2022-12-18T01:25:47;-3.60;99.90
55004;DHT22;40900;52.710;6.438;2022-12-18T01:28:13;-3.60;99.90
55004;DHT22;40900;52.710;6.438;2022-12-18T01:30:38;-3.60;99.90
55004;DHT22;40900;52.710;6.438;2022-12-18T01:33:04;-3.60;99.90
55004;DHT22;40900;52.710;6.438;2022-12-18T01:35:31;-3.60;99.90
55004;DHT22;40900;52.710;6.438;2022-12-18T01:37:56;-3.60;99.90
55004;DHT22;40900;52.710;6.438;2022-12-18T01:40:23;-3.70;99.90
55004;DHT22;40900;52.710;6.438;2022-12-18T01:42:52;-3.70;99.90
55004;DHT22;40900;52.710;6.438;2022-12-18T01:47:49;-3.70;99.90
55004;DHT22;40900;52.710;6.438;2022-12-18T01:50:16;-3.70;99.90
55004;DHT22;40900;52.710;6.438;2022-12-18T01:52:47;-3.70;99.90
55004;DHT22;40900;52.710;6.438;2022-12-18T01:55:14;-3.80;99.90
55004;DHT22;40900;52.710;6.438;2022-12-18T01:57:42;-3.80;99.90
55004;DHT22;40900;52.710;6.438;2022-12-18T02:00:11;-3.80;99.90
55004;DHT22;40900;52.710;6.438;2022-12-18T02:02:40;-3.90;99.90
55004;DHT22;40900;52.710;6.438;2022-12-18T02:05:07;-3.90;99.90
55004;DHT22;40900;52.710;6.438;2022-12-18T02:10:22;-4.00;99.90
55004;DHT22;40900;52.710;6.438;2022-12-18T02:13:00;-4.00;99.90
55004;DHT22;40900;52.710;6.438;2022-12-18T02:18:22;-4.10;99.90
55004;DHT22;40900;52.710;6.438;2022-12-18T02:20:57;-3.90;99.90
55004;DHT22;40900;52.710;6.438;2022-12-18T02:26:22;-4.10;99.90
55004;DHT22;40900;52.710;6.438;2022-12-18T02:28:54;-4.10;99.90
55004;DHT22;40900;52.710;6.438;2022-12-18T02:31:26;-4.20;99.90
55004;DHT22;40900;52.710;6.438;2022-12-18T02:33:55;-4.20;99.90
55004;DHT22;40900;52.710;6.438;2022-12-18T02:36:22;-4.20;99.90
55004;DHT22;40900;52.710;6.438;2022-12-18T02:38:48;-4.20;99.90
55004;DHT22;40900;52.710;6.438;2022-12-18T02:41:16;-4.20;99.90
55004;DHT22;40900;52.710;6.438;2022-12-18T02:43:48;-4.20;99.90
55004;DHT22;40900;52.710;6.438;2022-12-18T02:46:35;-4.20;99.90
55004;DHT22;40900;52.710;6.438;2022-12-18T02:49:17;-4.30;99.90
55004;DHT22;40900;52.710;6.438;2022-12-18T02:51:53;-4.30;99.90
55004;DHT22;40900;52.710;6.438;2022-12-18T02:55:15;-4.30;99.90
55004;DHT22;40900;52.710;6.438;2022-12-18T02:57:45;-4.30;99.90
55004;DHT22;40900;52.710;6.438;2022-12-18T03:00:18;-4.40;99.90
55004;DHT22;40900;52.710;6.438;2022-12-18T03:03:03;-4.40;99.90
55004;DHT22;40900;52.710;6.438;2022-12-18T03:05:38;-4.40;99.90
55004;DHT22;40900;52.710;6.438;2022-12-18T03:08:08;-4.50;99.90
55004;DHT22;40900;52.710;6.438;2022-12-18T03:10:45;-4.50;99.90
55004;DHT22;40900;52.710;6.438;2022-12-18T03:13:19;-4.50;99.90
55004;DHT22;40900;52.710;6.438;2022-12-18T03:15:48;-4.60;99.90
55004;DHT22;40900;52.710;6.438;2022-12-18T03:18:25;-4.60;99.90
55004;DHT22;40900;52.710;6.438;2022-12-18T03:20:53;-4.70;99.90
55004;DHT22;40900;52.710;6.438;2022-12-18T03:23:24;-4.60;99.90
55004;DHT22;40900;52.710;6.438;2022-12-18T03:25:56;-4.60;99.90
55004;DHT22;40900;52.710;6.438;2022-12-18T03:28:23;-4.70;99.90
55004;DHT22;40900;52.710;6.438;2022-12-18T03:30:56;-4.70;99.90
55004;DHT22;40900;52.710;6.438;2022-12-18T03:33:42;-4.70;99.90
55004;DHT22;40900;52.710;6.438;2022-12-18T03:36:11;-4.70;99.90
55004;DHT22;40900;52.710;6.438;2022-12-18T03:38:37;-4.70;99.90
55004;DHT22;40900;52.710;6.438;2022-12-18T03:44:09;-4.70;99.90
55004;DHT22;40900;52.710;6.438;2022-12-18T03:54:25;-4.80;99.90
55004;DHT22;40900;52.710;6.438;2022-12-18T03:56:59;-4.90;99.90
55004;DHT22;40900;52.710;6.438;2022-12-18T03:59:27;-4.90;99.90
55004;DHT22;40900;52.710;6.438;2022-12-18T04:01:56;-4.80;99.90
55004;DHT22;40900;52.710;6.438;2022-12-18T04:04:24;-4.80;99.90
55004;DHT22;40900;52.710;6.438;2022-12-18T04:06:52;-4.80;99.90
55004;DHT22;40900;52.710;6.438;2022-12-18T04:09:19;-4.90;99.90
55004;DHT22;40900;52.710;6.438;2022-12-18T04:11:46;-4.90;99.90
55004;DHT22;40900;52.710;6.438;2022-12-18T04:14:12;-4.90;99.90
55004;DHT22;40900;52.710;6.438;2022-12-18T04:16:38;-4.90;99.90
55004;DHT22;40900;52.710;6.438;2022-12-18T04:19:05;-4.90;99.90
55004;DHT22;40900;52.710;6.438;2022-12-18T04:21:30;-4.90;99.90
55004;DHT22;40900;52.710;6.438;2022-12-18T04:23:56;-4.80;99.90
55004;DHT22;40900;52.710;6.438;2022-12-18T04:26:22;-4.90;99.90
55004;DHT22;40900;52.710;6.438;2022-12-18T04:28:47;-4.90;99.90
55004;DHT22;40900;52.710;6.438;2022-12-18T04:31:13;-5.00;99.90
55004;DHT22;40900;52.710;6.438;2022-12-18T04:33:39;-5.00;99.90
55004;DHT22;40900;52.710;6.438;2022-12-18T04:36:05;-5.00;99.90
55004;DHT22;40900;52.710;6.438;2022-12-18T04:38:31;-5.00;99.90
55004;DHT22;40900;52.710;6.438;2022-12-18T04:40:56;-5.00;99.90
55004;DHT22;40900;52.710;6.438;2022-12-18T04:43:22;-5.00;99.90
55004;DHT22;40900;52.710;6.438;2022-12-18T04:45:48;-5.00;99.90
55004;DHT22;40900;52.710;6.438;2022-12-18T04:48:13;-5.00;99.90
55004;DHT22;40900;52.710;6.438;2022-12-18T04:50:39;-5.00;99.90
55004;DHT22;40900;52.710;6.438;2022-12-18T04:53:04;-5.00;99.90
55004;DHT22;40900;52.710;6.438;2022-12-18T04:55:30;-5.00;99.90
55004;DHT22;40900;52.710;6.438;2022-12-18T04:57:56;-5.00;99.90
55004;DHT22;40900;52.710;6.438;2022-12-18T05:00:22;-5.00;99.90
55004;DHT22;40900;52.710;6.438;2022-12-18T05:02:48;-5.00;99.90
55004;DHT22;40900;52.710;6.438;2022-12-18T05:05:14;-5.00;99.90
55004;DHT22;40900;52.710;6.438;2022-12-18T05:07:39;-5.00;99.90
55004;DHT22;40900;52.710;6.438;2022-12-18T05:10:07;-5.00;99.90
55004;DHT22;40900;52.710;6.438;2022-12-18T05:12:32;-5.00;99.90
55004;DHT22;40900;52.710;6.438;2022-12-18T05:14:58;-4.80;99.90
55004;DHT22;40900;52.710;6.438;2022-12-18T05:17:24;-5.00;99.90
55004;DHT22;40900;52.710;6.438;2022-12-18T05:19:49;-5.00;99.90
55004;DHT22;40900;52.710;6.438;2022-12-18T05:22:15;-5.00;99.90
55004;DHT22;40900;52.710;6.438;2022-12-18T05:24:41;-5.00;99.90
55004;DHT22;40900;52.710;6.438;2022-12-18T05:27:06;-5.00;99.90
55004;DHT22;40900;52.710;6.438;2022-12-18T05:29:32;-5.00;99.90
55004;DHT22;40900;52.710;6.438;2022-12-18T05:31:58;-5.00;99.90
55004;DHT22;40900;52.710;6.438;2022-12-18T05:34:23;-5.00;99.90
55004;DHT22;40900;52.710;6.438;2022-12-18T05:36:49;-5.00;99.90
55004;DHT22;40900;52.710;6.438;2022-12-18T05:39:15;-5.10;99.90
55004;DHT22;40900;52.710;6.438;2022-12-18T05:41:40;-5.00;99.90
55004;DHT22;40900;52.710;6.438;2022-12-18T05:44:06;-5.10;99.90
55004;DHT22;40900;52.710;6.438;2022-12-18T05:46:32;-5.10;99.90
55004;DHT22;40900;52.710;6.438;2022-12-18T05:49:01;-5.10;99.90
55004;DHT22;40900;52.710;6.438;2022-12-18T05:51:27;-5.20;99.90
55004;DHT22;40900;52.710;6.438;2022-12-18T05:53:53;-5.10;99.90
55004;DHT22;40900;52.710;6.438;2022-12-18T05:56:21;-5.20;99.90
55004;DHT22;40900;52.710;6.438;2022-12-18T05:58:47;-5.10;99.90
55004;DHT22;40900;52.710;6.438;2022-12-18T06:01:25;-5.20;99.90
55004;DHT22;40900;52.710;6.438;2022-12-18T06:03:51;-5.20;99.90
55004;DHT22;40900;52.710;6.438;2022-12-18T06:06:20;-5.20;99.90
55004;DHT22;40900;52.710;6.438;2022-12-18T06:08:46;-5.20;99.90
55004;DHT22;40900;52.710;6.438;2022-12-18T06:11:12;-5.20;99.90
55004;DHT22;40900;52.710;6.438;2022-12-18T06:13:38;-5.30;99.90
55004;DHT22;40900;52.710;6.438;2022-12-18T06:16:05;-5.30;99.90
55004;DHT22;40900;52.710;6.438;2022-12-18T06:18:31;-5.30;99.90
55004;DHT22;40900;52.710;6.438;2022-12-18T06:20:58;-5.30;99.90
55004;DHT22;40900;52.710;6.438;2022-12-18T06:23:24;-5.30;99.90
55004;DHT22;40900;52.710;6.438;2022-12-18T06:25:50;-5.40;99.90
55004;DHT22;40900;52.710;6.438;2022-12-18T06:28:17;-5.40;99.90
55004;DHT22;40900;52.710;6.438;2022-12-18T06:30:44;-5.40;99.90
55004;DHT22;40900;52.710;6.438;2022-12-18T06:33:10;-5.40;99.90
55004;DHT22;40900;52.710;6.438;2022-12-18T06:35:36;-5.40;99.90
55004;DHT22;40900;52.710;6.438;2022-12-18T06:38:02;-5.50;99.90
55004;DHT22;40900;52.710;6.438;2022-12-18T06:40:29;-5.50;99.90
55004;DHT22;40900;52.710;6.438;2022-12-18T06:42:55;-5.50;99.90
55004;DHT22;40900;52.710;6.438;2022-12-18T06:45:20;-5.50;99.90
55004;DHT22;40900;52.710;6.438;2022-12-18T06:47:46;-5.50;99.90
55004;DHT22;40900;52.710;6.438;2022-12-18T06:50:12;-5.60;99.90
55004;DHT22;40900;52.710;6.438;2022-12-18T06:52:38;-5.60;99.90
55004;DHT22;40900;52.710;6.438;2022-12-18T06:55:06;-5.60;99.90
55004;DHT22;40900;52.710;6.438;2022-12-18T06:57:33;-5.60;99.90
55004;DHT22;40900;52.710;6.438;2022-12-18T06:59:59;-5.60;99.90
55004;DHT22;40900;52.710;6.438;2022-12-18T07:02:25;-5.60;99.90
55004;DHT22;40900;52.710;6.438;2022-12-18T07:04:50;-5.60;99.90
55004;DHT22;40900;52.710;6.438;2022-12-18T07:07:16;-5.60;99.90
55004;DHT22;40900;52.710;6.438;2022-12-18T07:09:42;-5.30;99.90
55004;DHT22;40900;52.710;6.438;2022-12-18T07:12:08;-5.60;99.90
55004;DHT22;40900;52.710;6.438;2022-12-18T07:14:33;-5.60;99.90
55004;DHT22;40900;52.710;6.438;2022-12-18T07:16:59;-5.60;99.90
55004;DHT22;40900;52.710;6.438;2022-12-18T07:19:25;-5.60;99.90
55004;DHT22;40900;52.710;6.438;2022-12-18T07:21:51;-5.60;99.90
55004;DHT22;40900;52.710;6.438;2022-12-18T07:24:17;-5.60;99.90
55004;DHT22;40900;52.710;6.438;2022-12-18T07:26:45;-5.50;99.90
55004;DHT22;40900;52.710;6.438;2022-12-18T07:29:11;-5.50;99.90
55004;DHT22;40900;52.710;6.438;2022-12-18T07:31:37;-5.50;99.90
55004;DHT22;40900;52.710;6.438;2022-12-18T07:34:02;-5.50;99.90
55004;DHT22;40900;52.710;6.438;2022-12-18T07:36:28;-5.50;99.90
55004;DHT22;40900;52.710;6.438;2022-12-18T07:38:54;-5.50;99.90
55004;DHT22;40900;52.710;6.438;2022-12-18T07:41:20;-5.50;99.90
55004;DHT22;40900;52.710;6.438;2022-12-18T07:43:46;-5.40;99.90
55004;DHT22;40900;52.710;6.438;2022-12-18T07:46:14;-5.40;99.90
55004;DHT22;40900;52.710;6.438;2022-12-18T07:48:41;-5.40;99.90
55004;DHT22;40900;52.710;6.438;2022-12-18T07:51:07;-5.40;99.90
55004;DHT22;40900;52.710;6.438;2022-12-18T07:53:34;-5.40;99.90
55004;DHT22;40900;52.710;6.438;2022-12-18T07:56:02;-5.40;99.90
55004;DHT22;40900;52.710;6.438;2022-12-18T07:58:29;-5.40;99.90
55004;DHT22;40900;52.710;6.438;2022-12-18T08:01:05;-5.30;99.90
55004;DHT22;40900;52.710;6.438;2022-12-18T08:03:31;-5.40;99.90
55004;DHT22;40900;52.710;6.438;2022-12-18T08:06:02;-5.30;99.90
55004;DHT22;40900;52.710;6.438;2022-12-18T08:08:28;-5.30;99.90
55004;DHT22;40900;52.710;6.438;2022-12-18T08:10:54;-5.30;99.90
55004;DHT22;40900;52.710;6.438;2022-12-18T08:13:20;-5.20;99.90
55004;DHT22;40900;52.710;6.438;2022-12-18T08:15:46;-5.20;99.90
55004;DHT22;40900;52.710;6.438;2022-12-18T08:18:12;-5.20;99.90
55004;DHT22;40900;52.710;6.438;2022-12-18T08:20:38;-5.10;99.90
55004;DHT22;40900;52.710;6.438;2022-12-18T08:23:03;-5.10;99.90
55004;DHT22;40900;52.710;6.438;2022-12-18T08:25:29;-5.10;99.90
55004;DHT22;40900;52.710;6.438;2022-12-18T08:27:55;-5.00;99.90
55004;DHT22;40900;52.710;6.438;2022-12-18T08:30:22;-5.00;99.90
55004;DHT22;40900;52.710;6.438;2022-12-18T08:32:51;-5.00;99.90
55004;DHT22;40900;52.710;6.438;2022-12-18T08:35:18;-5.00;99.90
55004;DHT22;40900;52.710;6.438;2022-12-18T08:37:44;-4.90;99.90
55004;DHT22;40900;52.710;6.438;2022-12-18T08:40:10;-4.90;99.90
55004;DHT22;40900;52.710;6.438;2022-12-18T08:42:35;-4.90;99.90
55004;DHT22;40900;52.710;6.438;2022-12-18T08:45:20;-4.80;99.90
55004;DHT22;40900;52.710;6.438;2022-12-18T08:47:45;-4.70;99.90
55004;DHT22;40900;52.710;6.438;2022-12-18T08:50:11;-4.80;99.90
55004;DHT22;40900;52.710;6.438;2022-12-18T08:52:37;-4.70;99.90
55004;DHT22;40900;52.710;6.438;2022-12-18T08:55:03;-4.60;99.90
55004;DHT22;40900;52.710;6.438;2022-12-18T08:57:29;-4.60;99.90
55004;DHT22;40900;52.710;6.438;2022-12-18T08:59:55;-4.50;99.90
55004;DHT22;40900;52.710;6.438;2022-12-18T09:02:21;-4.40;99.90
55004;DHT22;40900;52.710;6.438;2022-12-18T09:04:47;-4.30;99.90
55004;DHT22;40900;52.710;6.438;2022-12-18T09:07:13;-4.30;99.90
55004;DHT22;40900;52.710;6.438;2022-12-18T09:09:38;-4.20;99.90
55004;DHT22;40900;52.710;6.438;2022-12-18T09:12:04;-4.10;99.90
55004;DHT22;40900;52.710;6.438;2022-12-18T09:14:30;-4.00;99.90
55004;DHT22;40900;52.710;6.438;2022-12-18T09:16:55;-3.90;99.90
55004;DHT22;40900;52.710;6.438;2022-12-18T09:19:21;-3.90;99.90
55004;DHT22;40900;52.710;6.438;2022-12-18T09:21:47;-3.80;99.90
55004;DHT22;40900;52.710;6.438;2022-12-18T09:24:13;-3.80;99.90
55004;DHT22;40900;52.710;6.438;2022-12-18T09:26:39;-3.80;99.90
55004;DHT22;40900;52.710;6.438;2022-12-18T09:29:05;-3.60;99.90
55004;DHT22;40900;52.710;6.438;2022-12-18T09:31:33;-3.50;99.90
55004;DHT22;40900;52.710;6.438;2022-12-18T09:33:59;-3.50;99.90
55004;DHT22;40900;52.710;6.438;2022-12-18T09:36:25;-3.40;99.90
55004;DHT22;40900;52.710;6.438;2022-12-18T09:38:50;-3.40;99.90
55004;DHT22;40900;52.710;6.438;2022-12-18T09:41:43;-3.30;99.90
55004;DHT22;40900;52.710;6.438;2022-12-18T09:44:28;-3.20;99.90
55004;DHT22;40900;52.710;6.438;2022-12-18T09:49:30;-3.10;99.90
55004;DHT22;40900;52.710;6.438;2022-12-18T09:52:04;-3.00;99.90
55004;DHT22;40900;52.710;6.438;2022-12-18T09:54:38;-2.90;99.90
55004;DHT22;40900;52.710;6.438;2022-12-18T09:57:05;-2.80;99.90
55004;DHT22;40900;52.710;6.438;2022-12-18T09:59:36;-2.80;99.90
55004;DHT22;40900;52.710;6.438;2022-12-18T10:02:24;-2.80;99.90
55004;DHT22;40900;52.710;6.438;2022-12-18T10:10:48;-2.70;99.90
55004;DHT22;40900;52.710;6.438;2022-12-18T10:13:40;-2.60;99.90
55004;DHT22;40900;52.710;6.438;2022-12-18T10:21:16;-2.60;99.90
55004;DHT22;40900;52.710;6.438;2022-12-18T10:26:24;-2.60;99.90
55004;DHT22;40900;52.710;6.438;2022-12-18T10:28:51;-2.60;99.90
55004;DHT22;40900;52.710;6.438;2022-12-18T10:31:21;-2.60;99.90
55004;DHT22;40900;52.710;6.438;2022-12-18T10:33:47;-2.60;99.90
55004;DHT22;40900;52.710;6.438;2022-12-18T10:36:13;-2.60;99.90
55004;DHT22;40900;52.710;6.438;2022-12-18T10:38:39;-2.50;99.90
55004;DHT22;40900;52.710;6.438;2022-12-18T10:43:47;-2.50;99.90
55004;DHT22;40900;52.710;6.438;2022-12-18T10:46:17;-2.50;99.90
55004;DHT22;40900;52.710;6.438;2022-12-18T10:51:33;-2.40;99.90
55004;DHT22;40900;52.710;6.438;2022-12-18T10:54:00;-2.40;99.90
55004;DHT22;40900;52.710;6.438;2022-12-18T10:56:28;-2.30;99.90
55004;DHT22;40900;52.710;6.438;2022-12-18T10:59:04;-2.30;99.90
55004;DHT22;40900;52.710;6.438;2022-12-18T11:01:53;-2.30;99.90
55004;DHT22;40900;52.710;6.438;2022-12-18T11:04:27;-2.30;99.90
55004;DHT22;40900;52.710;6.438;2022-12-18T11:07:04;-2.30;99.90
55004;DHT22;40900;52.710;6.438;2022-12-18T11:09:36;-2.30;99.90
55004;DHT22;40900;52.710;6.438;2022-12-18T11:12:04;-2.30;99.90
55004;DHT22;40900;52.710;6.438;2022-12-18T11:14:43;-2.30;99.90
55004;DHT22;40900;52.710;6.438;2022-12-18T11:17:31;-2.30;99.90
55004;DHT22;40900;52.710;6.438;2022-12-18T11:20:02;-2.20;99.90
55004;DHT22;40900;52.710;6.438;2022-12-18T11:22:31;-2.10;99.90
55004;DHT22;40900;52.710;6.438;2022-12-18T11:25:00;-2.10;99.90
55004;DHT22;40900;52.710;6.438;2022-12-18T11:27:28;-2.10;99.90
55004;DHT22;40900;52.710;6.438;2022-12-18T11:32:48;-2.00;99.90
55004;DHT22;40900;52.710;6.438;2022-12-18T11:35:32;-1.90;99.90
55004;DHT22;40900;52.710;6.438;2022-12-18T11:38:06;-2.00;99.90
55004;DHT22;40900;52.710;6.438;2022-12-18T11:40:38;-1.90;99.90
55004;DHT22;40900;52.710;6.438;2022-12-18T11:43:25;-1.90;99.90
55004;DHT22;40900;52.710;6.438;2022-12-18T11:45:55;-1.90;99.90
55004;DHT22;40900;52.710;6.438;2022-12-18T11:48:26;-1.80;99.90
55004;DHT22;40900;52.710;6.438;2022-12-18T11:50:55;-1.90;99.90
55004;DHT22;40900;52.710;6.438;2022-12-18T11:53:21;-1.80;99.90
55004;DHT22;40900;52.710;6.438;2022-12-18T11:56:01;-1.80;99.90
55004;DHT22;40900;52.710;6.438;2022-12-18T12:09:56;-1.70;99.90
55004;DHT22;40900;52.710;6.438;2022-12-18T12:26:11;-1.60;99.90
55004;DHT22;40900;52.710;6.438;2022-12-18T12:37:11;-1.40;99.90
55004;DHT22;40900;52.710;6.438;2022-12-18T12:39:41;-1.40;99.90
55004;DHT22;40900;52.710;6.438;2022-12-18T12:42:25;-1.30;99.90
55004;DHT22;40900;52.710;6.438;2022-12-18T12:45:18;-1.30;99.90
55004;DHT22;40900;52.710;6.438;2022-12-18T12:47:47;-1.20;99.90
55004;DHT22;40900;52.710;6.438;2022-12-18T12:50:17;-1.20;99.90
55004;DHT22;40900;52.710;6.438;2022-12-18T12:52:50;-1.20;99.90
55004;DHT22;40900;52.710;6.438;2022-12-18T12:55:21;-1.10;99.90
55004;DHT22;40900;52.710;6.438;2022-12-18T12:58:02;-1.10;99.90
55004;DHT22;40900;52.710;6.438;2022-12-18T13:00:39;-1.10;99.90
55004;DHT22;40900;52.710;6.438;2022-12-18T13:03:08;-1.10;99.90
55004;DHT22;40900;52.710;6.438;2022-12-18T13:08:24;-1.00;99.90
55004;DHT22;40900;52.710;6.438;2022-12-18T13:10:53;-1.00;99.90
55004;DHT22;40900;52.710;6.438;2022-12-18T13:13:54;-1.00;99.90
55004;DHT22;40900;52.710;6.438;2022-12-18T13:16:23;-0.90;99.90
55004;DHT22;40900;52.710;6.438;2022-12-18T13:18:54;-1.00;99.90
55004;DHT22;40900;52.710;6.438;2022-12-18T13:21:32;-0.90;99.90
55004;DHT22;40900;52.710;6.438;2022-12-18T13:24:25;-0.90;99.90
55004;DHT22;40900;52.710;6.438;2022-12-18T13:26:52;-0.90;99.90
55004;DHT22;40900;52.710;6.438;2022-12-18T13:32:03;-0.90;99.90
55004;DHT22;40900;52.710;6.438;2022-12-18T13:34:30;-0.90;99.90
55004;DHT22;40900;52.710;6.438;2022-12-18T13:38:00;-0.90;99.90
55004;DHT22;40900;52.710;6.438;2022-12-18T13:40:00;-0.90;99.90
55004;DHT22;40900;52.710;6.438;2022-12-18T13:45:37;-0.80;99.90
55004;DHT22;40900;52.710;6.438;2022-12-18T13:48:04;-0.80;99.90
55004;DHT22;40900;52.710;6.438;2022-12-18T13:50:30;-0.90;99.90
55004;DHT22;40900;52.710;6.438;2022-12-18T13:52:56;-0.90;99.90
55004;DHT22;40900;52.710;6.438;2022-12-18T13:55:23;-0.90;99.90
55004;DHT22;40900;52.710;6.438;2022-12-18T13:57:49;-0.90;99.90
55004;DHT22;40900;52.710;6.438;2022-12-18T14:00:27;-0.90;99.90
55004;DHT22;40900;52.710;6.438;2022-12-18T14:02:57;-0.90;99.90
55004;DHT22;40900;52.710;6.438;2022-12-18T14:05:24;-0.90;99.90
55004;DHT22;40900;52.710;6.438;2022-12-18T14:07:50;-0.90;99.90
55004;DHT22;40900;52.710;6.438;2022-12-18T14:10:17;-0.90;99.90
55004;DHT22;40900;52.710;6.438;2022-12-18T14:12:47;-0.90;99.90
55004;DHT22;40900;52.710;6.438;2022-12-18T14:20:47;-0.90;99.90
55004;DHT22;40900;52.710;6.438;2022-12-18T14:23:45;-0.90;99.90
55004;DHT22;40900;52.710;6.438;2022-12-18T14:26:30;-0.90;99.90
55004;DHT22;40900;52.710;6.438;2022-12-18T14:29:00;-0.90;99.90
55004;DHT22;40900;52.710;6.438;2022-12-18T14:31:29;-0.90;99.90
55004;DHT22;40900;52.710;6.438;2022-12-18T14:33:55;-0.90;99.90
55004;DHT22;40900;52.710;6.438;2022-12-18T14:36:26;-0.90;99.90
55004;DHT22;40900;52.710;6.438;2022-12-18T14:38:57;-0.90;99.90
55004;DHT22;40900;52.710;6.438;2022-12-18T14:41:24;-1.00;99.90
55004;DHT22;40900;52.710;6.438;2022-12-18T14:43:52;-1.00;99.90
55004;DHT22;40900;52.710;6.438;2022-12-18T14:46:35;-1.00;99.90
55004;DHT22;40900;52.710;6.438;2022-12-18T14:51:58;-1.00;99.90
55004;DHT22;40900;52.710;6.438;2022-12-18T14:54:24;-1.00;99.90
55004;DHT22;40900;52.710;6.438;2022-12-18T14:59:31;-1.00;99.90
55004;DHT22;40900;52.710;6.438;2022-12-18T15:01:59;-1.00;99.90
55004;DHT22;40900;52.710;6.438;2022-12-18T15:04:40;-1.00;99.90
55004;DHT22;40900;52.710;6.438;2022-12-18T15:07:20;-1.00;99.90
55004;DHT22;40900;52.710;6.438;2022-12-18T15:12:39;-1.00;99.90
55004;DHT22;40900;52.710;6.438;2022-12-18T15:20:58;-1.00;99.90
55004;DHT22;40900;52.710;6.438;2022-12-18T15:23:48;-1.10;99.90
55004;DHT22;40900;52.710;6.438;2022-12-18T15:26:16;-1.10;99.90
55004;DHT22;40900;52.710;6.438;2022-12-18T15:28:50;-1.10;99.90
55004;DHT22;40900;52.710;6.438;2022-12-18T15:31:21;-1.10;99.90
55004;DHT22;40900;52.710;6.438;2022-12-18T15:36:21;-1.10;99.90
55004;DHT22;40900;52.710;6.438;2022-12-18T15:38:52;-1.10;99.90
55004;DHT22;40900;52.710;6.438;2022-12-18T15:41:20;-1.10;99.90
55004;DHT22;40900;52.710;6.438;2022-12-18T15:43:48;-1.10;99.90
55004;DHT22;40900;52.710;6.438;2022-12-18T15:46:16;-1.10;99.90
55004;DHT22;40900;52.710;6.438;2022-12-18T15:48:47;-1.10;99.90
55004;DHT22;40900;52.710;6.438;2022-12-18T15:53:42;-1.20;99.90
55004;DHT22;40900;52.710;6.438;2022-12-18T15:56:13;-1.20;99.90
55004;DHT22;40900;52.710;6.438;2022-12-18T15:58:57;-1.20;99.90
55004;DHT22;40900;52.710;6.438;2022-12-18T16:01:24;-1.20;99.90
55004;DHT22;40900;52.710;6.438;2022-12-18T16:03:50;-1.20;99.90
55004;DHT22;40900;52.710;6.438;2022-12-18T16:06:16;-1.20;99.90
55004;DHT22;40900;52.710;6.438;2022-12-18T16:08:42;-1.20;99.90
55004;DHT22;40900;52.710;6.438;2022-12-18T16:11:24;-1.20;99.90
55004;DHT22;40900;52.710;6.438;2022-12-18T16:16:31;-1.20;99.90
55004;DHT22;40900;52.710;6.438;2022-12-18T16:18:57;-1.30;99.90
55004;DHT22;40900;52.710;6.438;2022-12-18T16:21:23;-1.30;99.90
55004;DHT22;40900;52.710;6.438;2022-12-18T16:23:48;-1.30;99.90
55004;DHT22;40900;52.710;6.438;2022-12-18T16:26:14;-1.30;99.90
55004;DHT22;40900;52.710;6.438;2022-12-18T16:28:40;-1.30;99.90
55004;DHT22;40900;52.710;6.438;2022-12-18T16:31:05;-1.30;99.90
55004;DHT22;40900;52.710;6.438;2022-12-18T16:33:31;-1.30;99.90
55004;DHT22;40900;52.710;6.438;2022-12-18T16:35:57;-1.30;99.90
55004;DHT22;40900;52.710;6.438;2022-12-18T16:38:22;-1.30;99.90
55004;DHT22;40900;52.710;6.438;2022-12-18T16:40:48;-1.30;99.90
55004;DHT22;40900;52.710;6.438;2022-12-18T16:43:32;-1.20;99.90
55004;DHT22;40900;52.710;6.438;2022-12-18T16:45:58;-1.20;99.90
55004;DHT22;40900;52.710;6.438;2022-12-18T16:48:24;-1.20;99.90
55004;DHT22;40900;52.710;6.438;2022-12-18T16:50:51;-1.20;99.90
55004;DHT22;40900;52.710;6.438;2022-12-18T16:53:24;-1.20;99.90
55004;DHT22;40900;52.710;6.438;2022-12-18T16:55:54;-1.20;99.90
55004;DHT22;40900;52.710;6.438;2022-12-18T16:58:20;-1.20;99.90
55004;DHT22;40900;52.710;6.438;2022-12-18T17:00:46;-1.20;99.90
55004;DHT22;40900;52.710;6.438;2022-12-18T17:03:11;-1.20;99.90
55004;DHT22;40900;52.710;6.438;2022-12-18T17:05:37;-1.20;99.90
55004;DHT22;40900;52.710;6.438;2022-12-18T17:08:03;-1.20;99.90
55004;DHT22;40900;52.710;6.438;2022-12-18T17:10:29;-1.20;99.90
55004;DHT22;40900;52.710;6.438;2022-12-18T17:12:55;-1.20;99.90
55004;DHT22;40900;52.710;6.438;2022-12-18T17:15:20;-1.20;99.90
55004;DHT22;40900;52.710;6.438;2022-12-18T17:17:46;-1.20;99.90
55004;DHT22;40900;52.710;6.438;2022-12-18T17:20:12;-1.20;99.90
55004;DHT22;40900;52.710;6.438;2022-12-18T17:22:37;-1.20;99.90
55004;DHT22;40900;52.710;6.438;2022-12-18T17:25:03;-1.20;99.90
55004;DHT22;40900;52.710;6.438;2022-12-18T17:27:29;-1.20;99.90
55004;DHT22;40900;52.710;6.438;2022-12-18T17:29:55;-1.10;99.90
55004;DHT22;40900;52.710;6.438;2022-12-18T17:32:20;-1.10;99.90
55004;DHT22;40900;52.710;6.438;2022-12-18T17:34:46;-1.10;99.90
55004;DHT22;40900;52.710;6.438;2022-12-18T17:37:12;-1.10;99.90
55004;DHT22;40900;52.710;6.438;2022-12-18T17:39:38;-1.10;99.90